Time;durP1;ratioP1;P1;durP2;ratioP2;P2;SDS_P1;SDS_P2;PMS_P1;PMS_P2;Temp;Humidity;BMP_temperature;BMP_pressure;BME280_temperature;BME280_humidity;BME280_pressure;Samples;Min_cycle;Max_cycle;Signal;HPM_P1;HPM_P2
2023/04/22 00:02:05;;;;;;;0.50;0.50;;;;;;;13.55;100.00;99179.44;5026408;28;20312;-62
2023/04/22 00:04:32;;;;;;;0.40;0.40;;;;;;;13.52;100.00;99174.44;5019796;28;20260;-62
2023/04/22 00:07:01;;;;;;;0.50;0.50;;;;;;;13.51;100.00;99182.22;5022529;28;20229;-62
2023/04/22 00:09:35;;;;;;;0.50;0.50;;;;;;;13.48;100.00;99178.03;5019460;28;20213;-61
2023/04/22 00:12:02;;;;;;;0.40;0.40;;;;;;;13.47;100.00;99183.28;5023088;28;20194;-61
2023/04/22 00:14:29;;;;;;;0.50;0.50;;;;;;;13.47;100.00;99178.94;5023227;28;20266;-61
2023/04/22 00:16:55;;;;;;;0.60;0.60;;;;;;;13.46;100.00;99185.00;5028493;28;20263;-62
2023/04/22 00:19:23;;;;;;;0.50;0.50;;;;;;;13.42;100.00;99169.75;5021943;28;20202;-62
2023/04/22 00:21:50;;;;;;;0.50;0.50;;;;;;;13.36;100.00;99170.88;5018823;28;20308;-61
2023/04/22 00:24:18;;;;;;;0.40;0.40;;;;;;;13.34;100.00;99183.00;5029969;28;20202;-62
2023/04/22 00:26:45;;;;;;;0.40;0.40;;;;;;;13.33;100.00;99173.59;5024844;28;20209;-62
2023/04/22 00:29:11;;;;;;;0.50;0.50;;;;;;;13.30;100.00;99176.31;5025338;28;20201;-62
2023/04/22 00:31:38;;;;;;;0.40;0.40;;;;;;;13.28;100.00;99177.28;5031655;28;20248;-62
2023/04/22 00:34:05;;;;;;;0.50;0.50;;;;;;;13.28;100.00;99180.66;5021849;28;20198;-62
2023/04/22 00:36:32;;;;;;;0.50;0.50;;;;;;;13.28;100.00;99180.66;5026461;28;20197;-62
2023/04/22 00:38:58;;;;;;;0.57;0.57;;;;;;;13.26;100.00;99190.19;5021941;28;20205;-61
2023/04/22 00:41:27;;;;;;;0.40;0.40;;;;;;;13.20;100.00;99167.31;5021190;28;20605;-61
2023/04/22 00:43:55;;;;;;;0.57;0.57;;;;;;;13.17;100.00;99162.31;5024375;28;20189;-62
2023/04/22 00:46:21;;;;;;;0.50;0.50;;;;;;;13.26;100.00;99185.06;5017566;28;20190;-62
2023/04/22 00:48:49;;;;;;;0.40;0.40;;;;;;;13.26;100.00;99185.06;5027052;28;20351;-62
2023/04/22 00:51:16;;;;;;;0.60;0.60;;;;;;;13.28;100.00;99188.38;5021515;28;20673;-62
2023/04/22 00:53:42;;;;;;;0.50;0.50;;;;;;;13.28;100.00;99198.69;5026254;28;20201;-62
2023/04/22 00:56:10;;;;;;;0.60;0.60;;;;;;;13.30;100.00;99191.75;5028431;28;20600;-61
2023/04/22 00:58:38;;;;;;;0.43;0.43;;;;;;;13.28;100.00;99196.09;5023294;28;20193;-61
2023/04/22 01:01:05;;;;;;;0.33;0.33;;;;;;;13.31;100.00;99197.72;5021524;28;20202;-62
2023/04/22 01:03:32;;;;;;;0.57;0.57;;;;;;;13.31;100.00;99195.97;5025827;28;20209;-62
2023/04/22 01:05:59;;;;;;;0.40;0.40;;;;;;;13.27;100.00;99189.31;5013995;28;20257;-62
2023/04/22 01:08:29;;;;;;;0.50;0.50;;;;;;;13.24;100.00;99194.59;5019017;28;20245;-61
2023/04/22 01:10:56;;;;;;;0.47;0.47;;;;;;;13.25;100.00;99193.66;5020439;28;20251;-62
2023/04/22 01:13:24;;;;;;;0.43;0.43;;;;;;;13.22;100.00;99193.81;5024700;28;20281;-62
2023/04/22 01:15:53;;;;;;;0.60;0.60;;;;;;;13.11;100.00;99175.44;5024328;28;20202;-62
2023/04/22 01:18:20;;;;;;;0.50;0.50;;;;;;;13.19;100.00;99186.22;5029464;28;20660;-61
2023/04/22 01:20:47;;;;;;;0.50;0.50;;;;;;;13.21;100.00;99188.75;5023306;28;20205;-62
2023/04/22 01:23:18;;;;;;;0.47;0.47;;;;;;;13.21;100.00;99192.16;5018593;28;20228;-61
2023/04/22 01:25:46;;;;;;;0.50;0.50;;;;;;;13.23;100.00;99185.19;5027187;28;20202;-62
2023/04/22 01:28:13;;;;;;;0.50;0.50;;;;;;;13.26;100.00;99185.06;5023088;28;20202;-62
2023/04/22 01:30:41;;;;;;;0.43;0.43;;;;;;;13.29;100.00;99182.34;5022260;28;20221;-62
2023/04/22 01:33:09;;;;;;;0.43;0.43;;;;;;;13.32;100.00;99178.78;5027649;28;20259;-62
2023/04/22 01:35:36;;;;;;;0.40;0.40;;;;;;;13.36;100.00;99181.16;5029420;28;20709;-62
2023/04/22 01:38:04;;;;;;;0.60;0.60;;;;;;;13.41;100.00;99179.22;5021864;28;20236;-62
2023/04/22 01:40:33;;;;;;;0.40;0.40;;;;;;;13.43;100.00;99172.28;5028934;28;20221;-61
2023/04/22 01:43:01;;;;;;;0.40;0.40;;;;;;;13.47;100.00;99173.78;5032826;28;20217;-62
2023/04/22 01:45:29;;;;;;;0.50;0.50;;;;;;;13.48;100.00;99164.31;5029272;28;20198;-62
2023/04/22 01:47:56;;;;;;;0.40;0.40;;;;;;;13.44;100.00;99168.78;5023317;28;20211;-62
2023/04/22 01:50:23;;;;;;;0.60;0.60;;;;;;;13.42;100.00;99162.88;5021917;28;20206;-62
2023/04/22 01:52:50;;;;;;;0.43;0.43;;;;;;;13.38;100.00;99163.06;5029143;28;20693;-62
2023/04/22 01:55:17;;;;;;;0.50;0.50;;;;;;;13.36;100.00;99165.72;5025744;28;20202;-62
2023/04/22 01:57:45;;;;;;;0.50;0.50;;;;;;;13.37;100.00;99164.00;5020390;28;20225;-61
2023/04/22 02:00:13;;;;;;;0.40;0.40;;;;;;;13.37;100.00;99158.84;5022850;28;20202;-62
2023/04/22 02:02:39;;;;;;;0.50;0.50;;;;;;;13.32;100.00;99164.19;5026021;28;20229;-61
2023/04/22 02:05:07;;;;;;;0.60;0.60;;;;;;;13.33;100.00;99167.59;5031476;28;20229;-62
2023/04/22 02:07:35;;;;;;;0.60;0.60;;;;;;;13.33;100.00;99165.88;5026566;28;20211;-62
2023/04/22 02:10:02;;;;;;;0.60;0.60;;;;;;;13.31;100.00;99161.69;5026725;28;20288;-62
2023/04/22 02:12:28;;;;;;;0.60;0.60;;;;;;;13.24;100.00;99166.28;5016475;28;20194;-62
2023/04/22 02:15:47;;;;;;;0.50;0.50;;;;;;;13.22;100.00;99168.06;5023284;28;20206;-63
2023/04/22 02:18:16;;;;;;;0.50;0.50;;;;;;;13.20;100.00;99167.31;5021395;28;20201;-62
2023/04/22 02:20:43;;;;;;;0.40;0.40;;;;;;;13.17;100.00;99162.31;5019203;28;20198;-61
2023/04/22 02:23:11;;;;;;;0.60;0.60;;;;;;;13.12;100.00;99169.38;5022599;28;20213;-61
2023/04/22 02:25:38;;;;;;;0.40;0.40;;;;;;;13.07;100.00;99164.41;5021515;28;20289;-62
2023/04/22 02:28:05;;;;;;;0.50;0.50;;;;;;;13.05;100.00;99165.41;5029493;28;20227;-62
2023/04/22 02:30:31;;;;;;;0.60;0.60;;;;;;;13.03;100.00;99162.03;5021325;28;20264;-62
2023/04/22 02:32:58;;;;;;;0.60;0.60;;;;;;;13.01;100.00;99164.69;5014469;28;20260;-61
2023/04/22 02:35:26;;;;;;;0.50;0.50;;;;;;;12.97;100.00;99167.44;5024023;28;20198;-62
2023/04/22 02:37:53;;;;;;;0.50;0.50;;;;;;;12.94;100.00;99167.59;5026819;28;20238;-61
2023/04/22 02:40:20;;;;;;;0.70;0.70;;;;;;;12.91;100.00;99167.72;5020234;28;20198;-61
2023/04/22 02:42:48;;;;;;;0.50;0.50;;;;;;;12.87;100.00;99176.47;5022469;28;20296;-61
2023/04/22 02:45:15;;;;;;;0.60;0.60;;;;;;;12.76;100.00;99163.25;5024160;28;20224;-62
2023/04/22 02:47:41;;;;;;;0.70;0.70;;;;;;;12.77;100.00;99181.16;5028127;28;20205;-61
2023/04/22 02:50:17;;;;;;;0.53;0.53;;;;;;;12.70;100.00;99184.09;5022677;28;20205;-61
2023/04/22 02:52:45;;;;;;;0.60;0.60;;;;;;;12.62;100.00;99179.25;5024754;28;20255;-62
2023/04/22 02:55:12;;;;;;;0.57;0.57;;;;;;;12.61;100.00;99186.13;5023411;28;20215;-61
2023/04/22 02:57:39;;;;;;;0.50;0.50;;;;;;;12.53;100.00;99183.06;5019355;28;20210;-61
2023/04/22 03:00:09;;;;;;;0.40;0.40;;;;;;;12.50;100.00;99174.63;5031220;28;20217;-62
2023/04/22 03:02:46;;;;;;;0.40;0.40;;;;;;;12.49;100.00;99176.34;5014106;28;20225;-62
2023/04/22 03:05:13;;;;;;;0.50;0.50;;;;;;;12.45;100.00;99177.38;5029857;28;20767;-61
2023/04/22 03:07:40;;;;;;;0.60;0.60;;;;;;;12.47;100.00;99177.31;5018237;28;20679;-62
2023/04/22 03:10:09;;;;;;;0.57;0.57;;;;;;;12.43;100.00;99176.63;5023572;28;20663;-62
2023/04/22 03:12:36;;;;;;;0.50;0.50;;;;;;;12.34;100.00;99171.81;5024480;28;20201;-61
2023/04/22 03:15:03;;;;;;;0.60;0.60;;;;;;;12.29;100.00;99173.75;5023360;28;20637;-61
2023/04/22 03:17:30;;;;;;;0.40;0.40;;;;;;;12.35;100.00;99188.94;5027299;28;20199;-62
2023/04/22 03:19:57;;;;;;;0.50;0.50;;;;;;;12.28;100.00;99179.78;5014734;28;20212;-61
2023/04/22 03:22:23;;;;;;;0.80;0.80;;;;;;;12.32;100.00;99191.63;5017228;28;20229;-61
2023/04/22 03:24:50;;;;;;;0.60;0.60;;;;;;;12.28;100.00;99189.25;5022804;28;20284;-61
2023/04/22 03:27:18;;;;;;;0.50;0.50;;;;;;;12.23;100.00;99188.59;5021125;28;20205;-61
2023/04/22 03:29:45;;;;;;;0.50;0.50;;;;;;;12.05;100.00;99179.91;5017071;28;20614;-62
2023/04/22 03:32:12;;;;;;;0.40;0.40;;;;;;;12.05;100.00;99190.97;5020979;28;20224;-61
2023/04/22 03:34:38;;;;;;;0.60;0.60;;;;;;;12.06;100.00;99191.81;5014825;28;20198;-61
2023/04/22 03:37:07;;;;;;;0.60;0.60;;;;;;;12.05;100.00;99195.31;5023212;28;20198;-62
2023/04/22 03:39:34;;;;;;;0.50;0.50;;;;;;;12.00;100.00;99198.06;5017732;28;20197;-62
2023/04/22 03:42:01;;;;;;;0.43;0.43;;;;;;;11.95;100.00;99199.13;5022036;28;20293;-61
2023/04/22 03:44:29;;;;;;;0.50;0.50;;;;;;;11.91;100.00;99202.72;5025648;28;20233;-61
2023/04/22 03:46:56;;;;;;;0.47;0.47;;;;;;;11.89;100.00;99207.09;5023225;28;20671;-61
2023/04/22 03:49:22;;;;;;;0.60;0.60;;;;;;;11.82;100.00;99209.03;5021511;28;20669;-61
2023/04/22 03:51:49;;;;;;;0.50;0.50;;;;;;;11.80;100.00;99209.97;5027280;28;20689;-61
2023/04/22 03:54:17;;;;;;;0.40;0.40;;;;;;;11.68;100.00;99202.72;5026237;28;20201;-61
2023/04/22 03:56:44;;;;;;;0.50;0.50;;;;;;;11.69;100.00;99206.97;5017040;28;20206;-61
2023/04/22 03:59:11;;;;;;;0.50;0.50;;;;;;;11.76;100.00;99214.38;5027817;28;20688;-61
2023/04/22 04:01:39;;;;;;;0.40;0.40;;;;;;;11.78;100.00;99212.63;5020290;28;20198;-61
2023/04/22 04:04:06;;;;;;;0.40;0.40;;;;;;;11.78;100.00;99216.91;5024440;28;20217;-60
2023/04/22 04:06:40;;;;;;;0.50;0.50;;;;;;;11.78;100.00;99219.47;5028289;28;20233;-61
2023/04/22 04:09:07;;;;;;;0.50;0.50;;;;;;;11.85;100.00;99223.50;5032003;28;20347;-62
2023/04/22 04:11:33;;;;;;;0.50;0.50;;;;;;;11.89;100.00;99223.31;5031990;28;20271;-61
2023/04/22 04:14:02;;;;;;;0.47;0.47;;;;;;;11.94;100.00;99218.84;5032136;28;20204;-62
2023/04/22 04:16:29;;;;;;;0.50;0.50;;;;;;;12.01;100.00;99225.44;5032004;28;20205;-61
2023/04/22 04:18:57;;;;;;;0.47;0.47;;;;;;;12.08;100.00;99223.44;5031950;28;20201;-61
2023/04/22 04:21:24;;;;;;;0.40;0.40;;;;;;;12.10;100.00;99229.34;5031308;28;20674;-61
2023/04/22 04:23:50;;;;;;;0.50;0.50;;;;;;;12.15;100.00;99226.63;5031834;28;20229;-61
2023/04/22 04:26:19;;;;;;;0.50;0.50;;;;;;;12.21;100.00;99232.34;5031353;28;20205;-61
2023/04/22 04:28:46;;;;;;;1.27;1.27;;;;;;;12.28;100.00;99227.81;5031794;28;20562;-62
2023/04/22 04:31:12;;;;;;;0.57;0.57;;;;;;;12.34;100.00;99228.38;5031621;28;20206;-61
2023/04/22 04:33:39;;;;;;;0.40;0.40;;;;;;;12.41;100.00;99224.66;5031595;28;20624;-62
2023/04/22 04:36:10;;;;;;;0.40;0.40;;;;;;;12.52;100.00;99242.25;5018346;28;20193;-61
2023/04/22 04:38:36;;;;;;;0.57;0.57;;;;;;;12.61;100.00;99231.56;5031746;28;20233;-61
2023/04/22 04:41:03;;;;;;;0.50;0.50;;;;;;;12.73;100.00;99235.41;5031558;28;20201;-61
2023/04/22 04:43:30;;;;;;;0.60;0.60;;;;;;;12.80;100.00;99240.19;5030902;28;20245;-61
2023/04/22 04:45:57;;;;;;;0.60;0.60;;;;;;;12.82;100.00;99224.72;5031536;28;20198;-61
2023/04/22 04:48:25;;;;;;;0.50;0.50;;;;;;;13.04;100.00;99241.75;5031675;28;20693;-61
2023/04/22 04:50:53;;;;;;;0.40;0.40;;;;;;;13.17;100.00;99242.09;5031431;28;20597;-62
2023/04/22 04:53:21;;;;;;;0.40;0.40;;;;;;;13.37;100.00;99241.22;5031675;28;20749;-61
2023/04/22 04:55:49;;;;;;;0.93;0.93;;;;;;;13.55;100.00;99238.66;5029239;28;20563;-62
2023/04/22 04:58:16;;;;;;;0.50;0.50;;;;;;;13.66;100.00;99246.75;5031516;28;20198;-62
2023/04/22 05:00:42;;;;;;;0.30;0.30;;;;;;;13.77;100.00;99248.00;5031254;28;20206;-62
2023/04/22 05:03:09;;;;;;;0.50;0.50;;;;;;;13.93;100.00;99254.13;5031354;28;20216;-61
2023/04/22 05:05:36;;;;;;;0.40;0.40;;;;;;;14.10;100.00;99257.59;5030170;28;20234;-61
2023/04/22 05:08:03;;;;;;;0.70;0.70;;;;;;;14.20;100.00;99264.00;5019948;28;20257;-61
2023/04/22 05:10:33;;;;;;;0.40;0.40;;;;;;;14.35;100.00;99256.47;5015753;28;20218;-63
2023/04/22 05:13:00;;;;;;;0.60;0.60;;;;;;;14.55;100.00;99259.75;5018583;28;20718;-62
2023/04/22 05:15:27;;;;;;;0.97;0.97;;;;;;;14.81;100.00;99260.22;5014735;28;20583;-62
2023/04/22 05:17:54;;;;;;;0.63;0.63;;;;;;;15.06;100.00;99265.81;5021375;28;20208;-62
2023/04/22 05:20:21;;;;;;;0.50;0.50;;;;;;;15.25;100.00;99266.56;5025680;28;20678;-61
2023/04/22 05:22:47;;;;;;;0.40;0.40;;;;;;;15.31;100.00;99263.69;5027890;28;20202;-62
2023/04/22 05:25:14;;;;;;;0.50;0.50;;;;;;;15.50;100.00;99269.59;5015432;28;20676;-62
2023/04/22 05:27:42;;;;;;;0.70;0.70;;;;;;;15.70;100.00;99268.56;5027500;28;20296;-63
2023/04/22 05:30:10;;;;;;;0.40;0.40;;;;;;;15.88;100.00;99274.47;5026752;28;20220;-62
2023/04/22 05:32:37;;;;;;;0.50;0.50;;;;;;;15.93;100.00;99259.56;5015496;28;20206;-62
2023/04/22 05:35:04;;;;;;;0.60;0.60;;;;;;;16.19;100.00;99277.06;5014147;28;20545;-63
2023/04/22 05:37:31;;;;;;;0.47;0.47;;;;;;;16.33;100.00;99278.91;5021738;28;20682;-62
2023/04/22 05:39:58;;;;;;;0.50;0.50;;;;;;;16.57;100.00;99273.25;5025446;28;20202;-62
2023/04/22 05:42:24;;;;;;;0.40;0.40;;;;;;;16.80;99.64;99275.31;5025293;28;20204;-62
2023/04/22 05:44:53;;;;;;;0.33;0.33;;;;;;;16.98;98.69;99272.59;5019012;28;20216;-62
2023/04/22 05:47:19;;;;;;;0.50;0.50;;;;;;;17.12;99.12;99265.72;5012395;28;20198;-63
2023/04/22 05:49:46;;;;;;;0.50;0.50;;;;;;;17.28;98.48;99276.00;5022364;28;20201;-62
2023/04/22 05:52:13;;;;;;;0.60;0.60;;;;;;;17.53;97.43;99278.78;5027337;28;20210;-62
2023/04/22 05:54:39;;;;;;;0.40;0.40;;;;;;;17.51;94.14;99278.03;5027738;28;20198;-64
2023/04/22 05:57:07;;;;;;;0.50;0.50;;;;;;;17.69;95.74;99278.72;5024777;28;20198;-61
2023/04/22 05:59:33;;;;;;;0.53;0.53;;;;;;;17.79;93.30;99283.25;5023649;28;20220;-62
2023/04/22 06:02:01;;;;;;;0.50;0.50;;;;;;;18.02;93.08;99279.22;5026486;28;20205;-62
2023/04/22 06:04:28;;;;;;;0.40;0.40;;;;;;;18.24;93.48;99273.53;5032013;28;20252;-62
2023/04/22 06:06:56;;;;;;;0.50;0.50;;;;;;;18.27;91.62;99270.72;5027856;28;20225;-61
2023/04/22 06:09:23;;;;;;;0.60;0.60;;;;;;;18.29;91.73;99276.63;5026368;28;20197;-62
2023/04/22 06:11:49;;;;;;;0.37;0.37;;;;;;;18.20;92.95;99262.50;5030781;28;20705;-62
2023/04/22 06:14:16;;;;;;;0.57;0.57;;;;;;;18.38;93.60;99272.66;5025811;28;20206;-62
2023/04/22 06:16:43;;;;;;;0.40;0.40;;;;;;;18.43;91.38;99275.78;5025367;28;20225;-61
2023/04/22 06:19:11;;;;;;;0.40;0.40;;;;;;;18.05;91.53;99263.47;5027730;28;20586;-61
2023/04/22 06:21:39;;;;;;;0.50;0.50;;;;;;;18.14;93.05;99270.66;5028037;28;20201;-62
2023/04/22 06:24:07;;;;;;;0.40;0.40;;;;;;;18.26;93.87;99271.66;5024109;28;20214;-62
2023/04/22 06:26:34;;;;;;;0.57;0.57;;;;;;;18.40;93.22;99279.41;5026079;28;20201;-62
2023/04/22 06:29:04;;;;;;;0.63;0.63;;;;;;;18.47;91.79;99265.09;5022576;28;20206;-62
2023/04/22 06:31:31;;;;;;;0.50;0.50;;;;;;;18.66;91.56;99273.41;5020023;28;20261;-62
2023/04/22 06:33:58;;;;;;;0.50;0.50;;;;;;;18.79;91.98;99278.63;5028301;28;20551;-61
2023/04/22 06:36:26;;;;;;;0.50;0.50;;;;;;;18.83;92.57;99278.31;5032427;28;20213;-62
2023/04/22 06:38:54;;;;;;;0.50;0.50;;;;;;;18.83;91.12;99280.94;5026912;28;20207;-62
2023/04/22 06:41:22;;;;;;;0.57;0.57;;;;;;;18.78;89.00;99274.34;5019969;28;20233;-62
2023/04/22 06:43:49;;;;;;;0.53;0.53;;;;;;;18.39;91.29;99277.72;5022488;28;20702;-63
2023/04/22 06:46:17;;;;;;;0.60;0.60;;;;;;;18.34;91.17;99253.84;5026145;28;20294;-62
2023/04/22 06:48:43;;;;;;;0.87;0.87;;;;;;;18.61;92.11;99267.66;5022175;28;20238;-63
2023/04/22 06:51:10;;;;;;;0.73;0.60;;;;;;;18.74;91.02;99278.91;5021033;28;20210;-62
2023/04/22 06:53:38;;;;;;;0.93;0.93;;;;;;;18.98;89.80;99275.63;5024669;28;20202;-62
2023/04/22 06:56:06;;;;;;;0.60;0.60;;;;;;;19.17;89.75;99271.72;5027297;28;20217;-62
2023/04/22 06:58:33;;;;;;;0.50;0.50;;;;;;;19.45;88.40;99288.88;5022341;28;20208;-63
2023/04/22 07:00:59;;;;;;;0.40;0.40;;;;;;;19.58;84.26;99270.72;5027931;28;20235;-62
2023/04/22 07:03:26;;;;;;;0.40;0.40;;;;;;;19.89;84.20;99278.88;5024220;28;20245;-62
2023/04/22 07:05:53;;;;;;;0.40;0.40;;;;;;;19.80;81.48;99282.13;5027139;28;20721;-62
2023/04/22 07:08:20;;;;;;;0.50;0.50;;;;;;;19.98;81.80;99285.19;5032273;28;20210;-63
2023/04/22 07:10:48;;;;;;;0.40;0.40;;;;;;;20.08;83.16;99290.56;5033132;28;20210;-61
2023/04/22 07:13:15;;;;;;;1.00;1.00;;;;;;;20.15;78.14;99297.00;5031699;28;20277;-63
2023/04/22 07:15:41;;;;;;;0.40;0.40;;;;;;;20.21;81.70;99287.00;5029925;28;20209;-65
2023/04/22 07:18:08;;;;;;;0.37;0.37;;;;;;;20.37;79.75;99294.56;5032395;28;20215;-61
2023/04/22 07:20:35;;;;;;;0.37;0.37;;;;;;;20.32;79.83;99300.09;5033561;28;20207;-64
2023/04/22 07:23:02;;;;;;;0.30;0.30;;;;;;;20.48;78.60;99299.84;5033070;28;20733;-63
2023/04/22 07:25:28;;;;;;;0.33;0.33;;;;;;;20.47;79.19;99297.34;5032356;28;20589;-63
2023/04/22 07:27:57;;;;;;;0.47;0.47;;;;;;;20.59;80.33;99306.84;5029561;28;20221;-64
2023/04/22 07:30:23;;;;;;;0.40;0.40;;;;;;;20.71;78.22;99306.78;5032502;28;20215;-64
2023/04/22 07:32:51;;;;;;;0.50;0.50;;;;;;;20.74;79.79;99303.97;5033125;28;20200;-63
2023/04/22 07:35:52;;;;;;;0.30;0.30;;;;;;;20.93;79.35;99308.69;5033272;28;20730;-63
2023/04/22 07:38:19;;;;;;;0.40;0.40;;;;;;;20.98;76.15;99303.09;5032735;28;20201;-61
2023/04/22 07:40:46;;;;;;;0.40;0.40;;;;;;;20.98;75.62;99303.09;5033038;28;20204;-63
2023/04/22 07:43:14;;;;;;;0.33;0.33;;;;;;;21.25;79.21;99293.25;5032408;28;20250;-64
2023/04/22 07:45:41;;;;;;;0.40;0.40;;;;;;;21.63;73.72;99296.38;5030104;28;20282;-64
2023/04/22 07:48:07;;;;;;;0.47;0.47;;;;;;;21.66;71.88;99290.94;5030360;28;20713;-62
2023/04/22 07:50:34;;;;;;;0.30;0.30;;;;;;;21.49;73.14;99290.59;5030922;28;20647;-64
2023/04/22 07:53:01;;;;;;;0.60;0.60;;;;;;;21.71;75.28;99288.78;5030673;28;20619;-65
2023/04/22 07:55:28;;;;;;;0.43;0.43;;;;;;;21.66;75.48;99262.22;5030869;28;20209;-63
2023/04/22 07:57:54;;;;;;;0.57;0.57;;;;;;;22.02;73.46;99289.88;5014033;28;20666;-65
2023/04/22 08:00:23;;;;;;;0.73;0.73;;;;;;;22.01;71.81;99279.53;5030276;28;20609;-66
2023/04/22 08:02:49;;;;;;;0.37;0.37;;;;;;;22.23;71.83;99295.19;5029831;28;20236;-64
2023/04/22 08:05:16;;;;;;;0.73;0.73;;;;;;;22.23;68.51;99290.78;5027060;28;20303;-71
2023/04/22 08:07:43;;;;;;;0.43;0.43;;;;;;;22.24;70.25;99291.59;5028712;28;20296;-66
2023/04/22 08:10:10;;;;;;;0.40;0.40;;;;;;;22.17;74.76;99285.22;5032356;28;20202;-65
2023/04/22 08:12:37;;;;;;;0.40;0.40;;;;;;;22.20;74.57;99285.78;5032091;28;20205;-65
2023/04/22 08:15:05;;;;;;;0.30;0.30;;;;;;;22.45;73.63;99295.13;5032287;28;20202;-65
2023/04/22 08:17:33;;;;;;;0.30;0.30;;;;;;;22.62;71.75;99293.78;5031128;28;20878;-64
2023/04/22 08:20:00;;;;;;;0.50;0.50;;;;;;;22.36;69.56;99298.44;5028645;28;20202;-65
2023/04/22 08:22:26;;;;;;;0.30;0.30;;;;;;;21.91;70.14;99285.50;5028595;28;20193;-67
2023/04/22 08:24:53;;;;;;;0.40;0.40;;;;;;;21.95;70.36;99286.91;5028592;28;20217;-67
2023/04/22 08:27:21;;;;;;;0.70;0.70;;;;;;;21.84;70.79;99283.47;5026410;28;20259;-67
2023/04/22 08:29:48;;;;;;;0.60;0.60;;;;;;;21.78;71.61;99279.53;5027589;28;20198;-67
2023/04/22 08:32:15;;;;;;;0.53;0.53;;;;;;;21.92;70.26;99274.09;5024296;28;20555;-67
2023/04/22 08:34:43;;;;;;;0.20;0.20;;;;;;;22.03;70.14;99270.66;5028648;28;20643;-67
2023/04/22 08:37:10;;;;;;;0.20;0.20;;;;;;;22.10;67.36;99269.19;5029458;28;20208;-67
2023/04/22 08:39:36;;;;;;;0.40;0.40;;;;;;;22.08;75.10;99257.22;5030573;28;20681;-67
2023/04/22 08:42:03;;;;;;;0.30;0.30;;;;;;;22.36;73.98;99256.66;5030305;28;20606;-67
2023/04/22 08:44:30;;;;;;;0.53;0.53;;;;;;;22.34;70.65;99262.03;5030259;28;20221;-67
2023/04/22 08:46:58;;;;;;;0.30;0.30;;;;;;;22.60;70.06;99246.00;5030601;28;20202;-67
2023/04/22 08:49:26;;;;;;;0.60;0.60;;;;;;;22.82;67.01;99254.59;5025561;28;20197;-67
2023/04/22 08:51:54;;;;;;;0.33;0.33;;;;;;;22.72;66.15;99261.53;5030470;28;20212;-67
2023/04/22 08:54:23;;;;;;;0.40;0.40;;;;;;;22.89;67.35;99263.59;5030374;28;22726;-67
2023/04/22 08:56:50;;;;;;;0.30;0.30;;;;;;;22.68;67.67;99243.66;5030995;28;20209;-67
2023/04/22 08:59:18;;;;;;;0.30;0.30;;;;;;;22.70;68.82;99257.41;5028521;28;20201;-67
2023/04/22 09:01:50;;;;;;;0.37;0.37;;;;;;;22.47;69.14;99244.41;5029913;28;20654;-67
2023/04/22 09:04:18;;;;;;;1.40;0.37;;;;;;;22.46;69.30;99241.91;5028396;28;20666;-65
2023/04/22 09:06:45;;;;;;;0.33;0.33;;;;;;;22.49;69.20;99239.03;5029399;28;20664;-66
2023/04/22 09:09:14;;;;;;;0.30;0.30;;;;;;;22.64;70.69;99235.19;5029995;28;20197;-66
2023/04/22 09:11:41;;;;;;;0.40;0.40;;;;;;;22.79;69.51;99235.72;5030475;28;20201;-65
2023/04/22 09:14:08;;;;;;;0.30;0.30;;;;;;;22.87;68.73;99228.09;5030419;28;20205;-66
2023/04/22 09:16:41;;;;;;;0.30;0.30;;;;;;;22.80;67.48;99222.56;5030549;28;20201;-65
2023/04/22 09:19:11;;;;;;;0.47;0.47;;;;;;;22.73;72.26;99218.78;5030439;28;20232;-66
2023/04/22 09:21:39;;;;;;;0.40;0.40;;;;;;;22.89;71.57;99220.94;5030756;28;20787;-65
2023/04/22 09:24:07;;;;;;;0.30;0.30;;;;;;;22.93;68.92;99219.75;5030076;28;20625;-66
2023/04/22 09:26:40;;;;;;;0.40;0.40;;;;;;;22.76;69.48;99205.47;5030367;28;20225;-65
2023/04/22 09:29:08;;;;;;;1.23;1.23;;;;;;;22.56;70.80;99214.06;5029948;28;20288;-66
2023/04/22 09:31:36;;;;;;;0.20;0.20;;;;;;;22.35;69.54;99214.06;5033063;28;20657;-66
2023/04/22 09:34:04;;;;;;;0.60;0.60;;;;;;;22.30;69.10;99207.53;5033801;28;20205;-65
2023/04/22 09:36:36;;;;;;;0.40;0.40;;;;;;;22.34;69.84;99203.72;5033725;28;20202;-66
2023/04/22 09:39:05;;;;;;;0.30;0.30;;;;;;;22.42;68.32;99196.13;5032638;28;20237;-65
2023/04/22 09:41:34;;;;;;;0.40;0.40;;;;;;;22.27;67.92;99198.19;5034068;28;20296;-66
2023/04/22 09:44:04;;;;;;;0.50;0.50;;;;;;;22.11;68.44;99191.69;5033492;28;20198;-65
2023/04/22 09:46:32;;;;;;;0.40;0.40;;;;;;;22.02;68.28;99187.22;5033541;28;20209;-65
2023/04/22 09:48:59;;;;;;;0.30;0.30;;;;;;;22.15;67.94;99182.69;5033335;28;20240;-65
2023/04/22 09:51:28;;;;;;;0.30;0.30;;;;;;;22.22;68.17;99184.69;5033993;28;20204;-66
2023/04/22 09:53:59;;;;;;;0.40;0.40;;;;;;;22.32;66.98;99176.91;5033295;28;20201;-64
2023/04/22 09:56:47;;;;;;;0.30;0.30;;;;;;;22.37;67.63;99172.13;5033073;28;20205;-68
2023/04/22 09:59:19;;;;;;;0.40;0.40;;;;;;;22.67;67.05;99176.66;5030047;28;20193;-65
2023/04/22 10:01:46;;;;;;;0.40;0.40;;;;;;;22.37;66.71;99178.19;5031839;28;20202;-65
2023/04/22 10:04:14;;;;;;;0.43;0.43;;;;;;;22.44;66.59;99170.69;5033308;28;20685;-66
2023/04/22 10:06:41;;;;;;;0.40;0.40;;;;;;;22.40;67.29;99177.09;5032576;28;20316;-65
2023/04/22 10:09:08;;;;;;;0.47;0.47;;;;;;;22.18;67.47;99185.03;5033262;28;20220;-65
2023/04/22 10:11:36;;;;;;;0.40;0.40;;;;;;;22.13;65.35;99180.22;5032937;28;20692;-66
2023/04/22 10:14:04;;;;;;;0.50;0.50;;;;;;;21.88;65.22;99180.47;5033257;28;20213;-65
2023/04/22 10:16:34;;;;;;;0.50;0.50;;;;;;;21.70;69.06;99174.94;5032579;28;20209;-65
2023/04/22 10:19:04;;;;;;;0.40;0.40;;;;;;;21.49;71.27;99174.00;5033440;28;20206;-65
2023/04/22 10:21:32;;;;;;;0.50;0.50;;;;;;;21.44;70.36;99177.00;5030744;28;20205;-65
2023/04/22 10:24:00;;;;;;;0.30;0.30;;;;;;;21.40;71.73;99164.31;5032984;28;20201;-66
2023/04/22 10:26:41;;;;;;;0.40;0.40;;;;;;;21.31;71.14;99159.81;5033258;28;20302;-66
2023/04/22 10:29:09;;;;;;;0.33;0.33;;;;;;;21.12;69.51;99167.41;5032765;28;20204;-65
2023/04/22 10:31:39;;;;;;;0.40;0.40;;;;;;;20.98;68.83;99160.59;5031548;28;20240;-66
2023/04/22 10:34:11;;;;;;;0.40;0.40;;;;;;;20.99;71.36;99153.63;5032416;28;20263;-66
2023/04/22 10:36:53;;;;;;;0.40;0.40;;;;;;;21.03;68.49;99157.66;5031588;28;20589;-65
2023/04/22 10:39:21;;;;;;;0.30;0.30;;;;;;;21.07;71.18;99170.31;5032857;28;20216;-64
2023/04/22 10:41:53;;;;;;;0.40;0.40;;;;;;;21.05;71.19;99164.41;5031518;28;20303;-65
2023/04/22 10:44:21;;;;;;;0.40;0.40;;;;;;;21.18;67.73;99174.75;5032872;28;20205;-66
2023/04/22 10:47:00;;;;;;;0.30;0.30;;;;;;;21.23;67.49;99157.78;5032713;28;20296;-65
2023/04/22 10:49:30;;;;;;;0.30;0.30;;;;;;;21.26;65.69;99177.59;5031521;28;20240;-65
2023/04/22 10:51:58;;;;;;;0.90;0.90;;;;;;;21.18;67.27;99179.97;5032269;28;20219;-66
2023/04/22 10:55:00;;;;;;;0.73;0.73;;;;;;;21.44;65.47;99184.00;5033030;28;21174;-65
2023/04/22 10:57:38;;;;;;;0.47;0.47;;;;;;;21.53;68.30;99185.88;5032389;28;20197;-66
2023/04/22 11:00:24;;;;;;;0.40;0.40;;;;;;;21.49;67.36;99188.84;5031934;28;20237;-65
2023/04/22 11:02:55;;;;;;;0.40;0.40;;;;;;;21.25;70.97;99186.38;5029507;28;20672;-65
2023/04/22 11:05:24;;;;;;;0.40;0.40;;;;;;;21.28;69.68;99180.91;5031156;28;20255;-65
2023/04/22 11:07:53;;;;;;;0.30;0.30;;;;;;;20.99;68.67;99192.72;5031988;28;20200;-65
2023/04/22 11:10:36;;;;;;;0.50;0.50;;;;;;;20.94;69.57;99180.84;5032206;28;20205;-66
2023/04/22 11:13:05;;;;;;;0.37;0.37;;;;;;;21.00;68.54;99212.63;5031965;28;20193;-65
2023/04/22 11:15:35;;;;;;;0.40;0.40;;;;;;;20.76;71.60;99226.53;5031872;28;20681;-65
2023/04/22 11:18:03;;;;;;;0.40;0.40;;;;;;;19.98;70.69;99242.72;5032239;28;20605;-66
2023/04/22 11:20:30;;;;;;;0.50;0.50;;;;;;;18.90;71.38;99251.94;5031602;28;20211;-65
2023/04/22 11:22:58;;;;;;;0.40;0.40;;;;;;;18.19;74.72;99258.22;5031873;28;20209;-65
2023/04/22 11:25:26;;;;;;;0.33;0.33;;;;;;;17.82;76.67;99274.44;5031243;28;20265;-65
2023/04/22 11:27:53;;;;;;;0.57;0.57;;;;;;;17.58;79.61;99263.81;5031936;28;20233;-65
2023/04/22 11:30:22;;;;;;;0.50;0.50;;;;;;;17.20;80.07;99262.66;5031852;28;20197;-64
2023/04/22 11:32:51;;;;;;;0.50;0.50;;;;;;;16.83;83.73;99270.91;5031742;28;20193;-65
2023/04/22 11:35:21;;;;;;;0.60;0.60;;;;;;;16.63;85.03;99269.47;5031583;28;20209;-65